createdAt,value
2024-03-02T00:01:38.591Z,81.65
2024-03-02T00:04:11.074Z,77.43
2024-03-02T00:06:40.037Z,70.22
2024-03-02T00:09:12.682Z,102.43
2024-03-02T00:11:43.648Z,78.23
2024-03-02T00:14:14.052Z,83.57
2024-03-02T00:16:45.069Z,79.93
2024-03-02T00:19:17.653Z,93.65
2024-03-02T00:21:48.939Z,78.95
2024-03-02T00:24:33.097Z,85.67
2024-03-02T00:27:02.584Z,100.10
2024-03-02T00:29:32.637Z,96.80
2024-03-02T00:32:04.953Z,114.78
2024-03-02T00:34:37.563Z,88.47
2024-03-02T00:37:09.688Z,96.03
2024-03-02T00:39:38.969Z,76.65
2024-03-02T00:42:16.017Z,86.68
2024-03-02T00:44:49.537Z,88.28
2024-03-02T00:47:35.842Z,111.55
2024-03-02T00:50:23.732Z,103.43
2024-03-02T00:53:04.486Z,119.05
2024-03-02T00:55:47.603Z,132.45
2024-03-02T00:58:37.249Z,135.23
2024-03-02T01:01:10.840Z,100.75
2024-03-02T01:03:47.780Z,108.87
2024-03-02T01:06:19.670Z,113.13
2024-03-02T01:08:52.696Z,109.47
2024-03-02T01:11:24.234Z,100.38
2024-03-02T01:13:54.323Z,109.68
2024-03-02T01:16:23.605Z,70.37
2024-03-02T01:18:52.761Z,53.65
2024-03-02T01:21:33.254Z,44.88
2024-03-02T01:24:06.818Z,75.70
2024-03-02T01:26:35.973Z,85.35
2024-03-02T01:29:04.877Z,97.33
2024-03-02T01:31:38.248Z,77.45
2024-03-02T01:34:08.370Z,72.00
2024-03-02T01:36:40.189Z,75.80
2024-03-02T01:39:10.797Z,92.60
2024-03-02T01:41:39.885Z,104.73
2024-03-02T01:44:08.765Z,111.75
2024-03-02T01:46:43.659Z,109.63
2024-03-02T01:49:16.340Z,107.88
2024-03-02T01:51:50.177Z,65.57
2024-03-02T01:54:31.772Z,67.40
2024-03-02T01:57:00.994Z,78.60
2024-03-02T01:59:30.192Z,85.00
2024-03-02T02:02:03.843Z,87.72
2024-03-02T02:04:53.125Z,86.57
2024-03-02T02:07:26.800Z,71.20
2024-03-02T02:09:55.897Z,65.32
2024-03-02T02:12:25.987Z,85.13
2024-03-02T02:14:55.682Z,96.03
2024-03-02T02:17:25.856Z,93.68
2024-03-02T02:22:42.060Z,116.97
2024-03-02T02:25:14.173Z,95.05
2024-03-02T02:27:43.434Z,110.90
2024-03-02T02:30:32.616Z,123.40
2024-03-02T02:33:02.489Z,122.83
2024-03-02T02:35:51.217Z,102.20
2024-03-02T02:38:33.049Z,114.18
2024-03-02T02:41:07.649Z,105.47
2024-03-02T02:43:37.902Z,113.72
2024-03-02T02:46:22.930Z,126.50
2024-03-02T02:48:55.987Z,132.15
2024-03-02T02:51:28.475Z,143.00
2024-03-02T02:53:59.731Z,124.57
2024-03-02T02:56:31.607Z,116.80
2024-03-02T02:59:02.653Z,119.80
2024-03-02T03:01:32.341Z,114.95
2024-03-02T03:04:06.241Z,136.48
2024-03-02T03:06:38.635Z,142.30
2024-03-02T03:09:19.676Z,153.30
2024-03-02T03:11:51.675Z,155.23
2024-03-02T03:14:25.039Z,145.25
2024-03-02T03:16:54.899Z,150.50
2024-03-02T03:19:23.905Z,100.10
2024-03-02T03:21:52.947Z,116.07
2024-03-02T03:24:26.791Z,114.87
2024-03-02T03:26:55.799Z,105.70
2024-03-02T03:29:24.720Z,101.07
2024-03-02T03:31:54.139Z,101.57
2024-03-02T03:34:25.692Z,106.18
2024-03-02T03:36:59.821Z,96.27
2024-03-02T03:39:41.931Z,89.80
2024-03-02T03:42:14.683Z,73.32
2024-03-02T03:44:44.442Z,83.65
2024-03-02T03:47:13.701Z,89.25
2024-03-02T03:50:00.293Z,91.83
2024-03-02T03:52:34.730Z,85.57
2024-03-02T03:55:08.961Z,91.32
2024-03-02T03:57:47.547Z,88.00
2024-03-02T04:00:19.490Z,98.05
2024-03-02T04:02:50.094Z,99.97
2024-03-02T04:05:23.577Z,95.90
2024-03-02T04:07:53.286Z,72.28
2024-03-02T04:10:29.041Z,79.45
2024-03-02T04:13:04.058Z,76.07
2024-03-02T04:15:45.006Z,83.73
2024-03-02T04:18:14.077Z,81.35
2024-03-02T04:20:46.059Z,89.45
2024-03-02T04:23:16.478Z,82.70
2024-03-02T04:25:47.166Z,55.15
2024-03-02T04:28:22.699Z,74.37
2024-03-02T04:31:05.801Z,74.15
2024-03-02T04:33:36.863Z,68.35
2024-03-02T04:36:09.889Z,46.10
2024-03-02T04:38:46.249Z,59.50
2024-03-02T04:41:30.549Z,57.67
2024-03-02T04:44:03.018Z,79.20
2024-03-02T04:46:37.927Z,66.53
2024-03-02T04:49:07.439Z,74.25
2024-03-02T04:51:36.575Z,83.95
2024-03-02T04:54:07.879Z,68.23
2024-03-02T04:56:51.706Z,60.25
2024-03-02T04:59:30.198Z,84.85
2024-03-02T05:01:59.759Z,73.55
2024-03-02T05:04:33.757Z,79.25
2024-03-02T05:07:04.795Z,73.20
2024-03-02T05:09:34.118Z,75.07
2024-03-02T05:12:39.679Z,86.75
2024-03-02T05:15:14.600Z,95.35
2024-03-02T05:18:13.638Z,103.35
2024-03-02T05:20:45.362Z,102.07
2024-03-02T05:23:15.875Z,93.60
2024-03-02T05:25:47.232Z,88.05
2024-03-02T05:28:21.556Z,104.05
2024-03-02T05:30:58.637Z,99.55
2024-03-02T05:33:31.950Z,93.47
2024-03-02T05:36:03.456Z,104.32
2024-03-02T05:38:32.571Z,99.15
2024-03-02T05:41:06.410Z,99.82
2024-03-02T05:43:44.093Z,102.47
2024-03-02T05:46:20.049Z,124.37
2024-03-02T05:48:57.894Z,115.35
2024-03-02T05:51:34.346Z,99.90
2024-03-02T05:54:08.418Z,108.10
2024-03-02T05:56:43.972Z,126.05
2024-03-02T05:59:17.475Z,124.50
2024-03-02T06:01:53.117Z,125.72
2024-03-02T06:04:28.658Z,135.18
2024-03-02T06:06:59.432Z,127.97
2024-03-02T06:09:30.440Z,83.55
2024-03-02T06:12:02.426Z,87.27
2024-03-02T06:14:34.247Z,118.20
2024-03-02T06:17:03.925Z,145.88
2024-03-02T06:19:33.106Z,136.13
2024-03-02T06:22:05.989Z,137.63
2024-03-02T06:24:36.034Z,141.80
2024-03-02T06:27:06.702Z,147.38
2024-03-02T06:29:50.001Z,148.73
2024-03-02T06:32:30.223Z,142.70
2024-03-02T06:35:13.657Z,131.60
2024-03-02T06:37:45.439Z,161.97
2024-03-02T06:40:19.472Z,144.45
2024-03-02T06:42:52.703Z,139.05
2024-03-02T06:45:32.557Z,170.00
2024-03-02T06:48:09.158Z,107.13
2024-03-02T06:50:38.438Z,122.83
2024-03-02T06:53:07.893Z,102.80
2024-03-02T06:55:37.163Z,128.88
2024-03-02T06:58:07.856Z,136.98
2024-03-02T07:00:49.022Z,128.73
2024-03-02T07:03:18.054Z,146.27
2024-03-02T07:05:52.406Z,122.18
2024-03-02T07:08:21.708Z,118.60
2024-03-02T07:10:54.725Z,121.85
2024-03-02T07:13:24.261Z,108.63
2024-03-02T07:16:24.238Z,108.10
2024-03-02T07:18:58.694Z,157.98
2024-03-02T07:21:30.384Z,169.20
2024-03-02T07:24:01.606Z,158.90
2024-03-02T07:29:04.661Z,166.23
2024-03-02T07:31:35.111Z,115.45
2024-03-02T07:34:05.997Z,126.55
2024-03-02T07:36:38.060Z,98.32
2024-03-02T07:39:08.789Z,123.97
2024-03-02T07:41:45.974Z,140.53
2024-03-02T07:44:16.671Z,130.38
2024-03-02T07:46:48.753Z,106.97
2024-03-02T07:49:19.386Z,128.52
2024-03-02T07:51:48.713Z,122.53
2024-03-02T07:54:17.599Z,141.87
2024-03-02T07:56:48.894Z,129.40
2024-03-02T07:59:19.825Z,128.05
2024-03-02T08:01:56.562Z,126.15
2024-03-02T08:04:25.849Z,139.73
2024-03-02T08:06:58.873Z,150.07
2024-03-02T08:09:29.442Z,159.13
2024-03-02T08:11:59.404Z,162.02
2024-03-02T08:14:28.794Z,165.13
2024-03-02T08:17:00.823Z,164.70
2024-03-02T08:19:30.033Z,161.47
2024-03-02T08:22:00.917Z,154.07
2024-03-02T08:24:33.794Z,165.70
2024-03-02T08:27:03.590Z,153.82
2024-03-02T08:29:37.221Z,133.45
2024-03-02T08:32:10.879Z,123.13
2024-03-02T08:34:46.215Z,125.10
2024-03-02T08:37:40.801Z,51.85
2024-03-02T08:40:30.091Z,39.20
2024-03-02T08:43:10.964Z,58.83
2024-03-02T08:45:46.694Z,74.47
2024-03-02T08:48:21.870Z,60.67
2024-03-02T08:51:18.949Z,75.07
2024-03-02T08:53:51.704Z,72.95
2024-03-02T08:56:30.977Z,75.05
2024-03-02T08:59:02.821Z,78.47
2024-03-02T09:01:50.604Z,70.57
2024-03-02T09:04:27.093Z,83.00
2024-03-02T09:06:57.735Z,81.05
2024-03-02T09:09:29.481Z,78.15
2024-03-02T09:12:02.334Z,81.40
2024-03-02T09:14:45.361Z,81.20
2024-03-02T09:17:17.576Z,67.63
2024-03-02T09:19:49.350Z,72.25
2024-03-02T09:22:20.165Z,80.05
2024-03-02T09:25:05.636Z,74.30
2024-03-02T09:28:06.864Z,81.47
2024-03-02T09:30:37.471Z,90.65
2024-03-02T09:35:54.305Z,94.43
2024-03-02T09:38:27.110Z,100.73
2024-03-02T09:40:59.379Z,76.93
2024-03-02T09:43:29.488Z,102.13
2024-03-02T09:46:02.014Z,99.05
2024-03-02T09:48:31.844Z,96.15
2024-03-02T09:51:10.184Z,114.87
2024-03-02T09:53:40.661Z,125.35
2024-03-02T09:56:10.430Z,104.78
2024-03-02T09:58:43.556Z,109.80
2024-03-02T10:01:18.677Z,109.50
2024-03-02T10:04:11.288Z,102.43
2024-03-02T10:06:41.827Z,101.38
2024-03-02T10:09:30.595Z,105.90
2024-03-02T10:12:07.421Z,99.20
2024-03-02T10:14:37.076Z,91.10
2024-03-02T10:17:09.735Z,97.47
2024-03-02T10:19:41.252Z,117.57
2024-03-02T10:22:13.076Z,119.35
2024-03-02T10:24:53.462Z,107.07
2024-03-02T10:27:30.202Z,98.15
2024-03-02T10:30:07.347Z,102.93
2024-03-02T10:32:41.548Z,109.68
2024-03-02T10:35:12.164Z,102.53
2024-03-02T10:37:46.685Z,113.47
2024-03-02T10:40:17.546Z,117.50
2024-03-02T10:42:50.068Z,119.73
2024-03-02T10:45:21.750Z,121.07
2024-03-02T10:47:52.797Z,126.80
2024-03-02T10:50:22.663Z,151.18
2024-03-02T10:52:53.597Z,132.98
2024-03-02T10:55:25.345Z,144.43
2024-03-02T10:57:58.460Z,143.80
2024-03-02T11:00:33.649Z,134.23
2024-03-02T11:03:12.556Z,138.15
2024-03-02T11:05:49.764Z,131.65
2024-03-02T11:08:31.967Z,129.83
2024-03-02T11:11:10.079Z,111.55
2024-03-02T11:13:43.886Z,121.18
2024-03-02T11:16:33.968Z,125.22
2024-03-02T11:19:04.532Z,135.98
2024-03-02T11:21:35.568Z,122.33
2024-03-02T11:24:38.919Z,113.78
2024-03-02T11:27:12.718Z,105.72
2024-03-02T11:29:50.822Z,90.80
2024-03-02T11:32:25.072Z,88.15
2024-03-02T11:34:56.610Z,96.33
2024-03-02T11:37:30.300Z,120.22
2024-03-02T11:40:11.322Z,125.97
2024-03-02T11:42:41.207Z,71.40
2024-03-02T11:45:14.361Z,74.75
2024-03-02T11:47:51.548Z,54.30
2024-03-02T11:50:39.514Z,70.72
2024-03-02T11:53:13.284Z,87.75
2024-03-02T11:55:48.405Z,68.00
2024-03-02T11:58:21.943Z,72.82
2024-03-02T12:00:57.971Z,81.67
2024-03-02T12:03:29.015Z,76.13
2024-03-02T12:05:58.516Z,80.13
2024-03-02T12:08:37.777Z,88.13
2024-03-02T12:11:08.828Z,90.70
2024-03-02T12:13:53.164Z,91.93
2024-03-02T12:16:28.243Z,98.25
2024-03-02T12:21:49.670Z,114.38
2024-03-02T12:24:19.373Z,108.78
2024-03-02T12:26:51.423Z,120.40
2024-03-02T12:29:25.125Z,115.68
2024-03-02T12:32:04.592Z,113.80
2024-03-02T12:34:34.270Z,115.82
2024-03-02T12:37:04.748Z,112.50
2024-03-02T12:39:34.444Z,110.13
2024-03-02T12:42:05.982Z,118.32
2024-03-02T12:44:38.636Z,119.20
2024-03-02T12:47:09.703Z,124.00
2024-03-02T12:49:40.315Z,113.93
2024-03-02T12:52:15.306Z,112.17
2024-03-02T12:55:04.880Z,112.45
2024-03-02T12:57:45.197Z,88.90
2024-03-02T13:00:23.453Z,94.75
2024-03-02T13:03:03.652Z,84.38
2024-03-02T13:05:34.633Z,89.17
2024-03-02T13:08:08.244Z,103.38
2024-03-02T13:10:50.005Z,116.60
2024-03-02T13:13:29.013Z,115.45
2024-03-02T13:16:08.634Z,126.05
2024-03-02T13:18:53.578Z,99.63
2024-03-02T13:21:50.347Z,109.35
2024-03-02T13:24:27.435Z,115.97
2024-03-02T13:27:01.764Z,109.70
2024-03-02T13:29:39.755Z,103.18
2024-03-02T13:32:10.884Z,100.83
2024-03-02T13:34:44.099Z,116.85
2024-03-02T13:37:25.348Z,95.68
2024-03-02T13:40:15.794Z,110.50
2024-03-02T13:42:50.548Z,115.28
2024-03-02T13:45:25.359Z,113.80
2024-03-02T13:47:56.100Z,99.97
2024-03-02T13:50:27.449Z,112.97
2024-03-02T13:52:56.647Z,112.15
2024-03-02T13:55:36.861Z,131.27
2024-03-02T13:58:12.425Z,125.13
2024-03-02T14:00:50.894Z,124.78
2024-03-02T14:03:23.983Z,126.30
2024-03-02T14:06:01.055Z,125.82
2024-03-02T14:08:31.148Z,122.95
2024-03-02T14:11:12.685Z,128.10
2024-03-02T14:13:42.345Z,131.80
2024-03-02T14:16:15.727Z,141.43
2024-03-02T14:18:44.856Z,117.00
2024-03-02T14:21:16.429Z,108.68
2024-03-02T14:23:46.726Z,112.33
2024-03-02T14:26:16.080Z,112.00
2024-03-02T14:28:50.437Z,115.07
2024-03-02T14:31:24.674Z,126.20
2024-03-02T14:33:56.523Z,110.63
2024-03-02T14:36:28.057Z,122.33
2024-03-02T14:39:02.662Z,121.47
2024-03-02T14:41:34.452Z,96.82
2024-03-02T14:44:06.055Z,96.40
2024-03-02T14:46:36.803Z,108.05
2024-03-02T14:49:06.651Z,116.43
2024-03-02T14:51:36.393Z,115.28
2024-03-02T14:54:07.474Z,127.93
2024-03-02T14:56:38.909Z,108.03
2024-03-02T14:59:12.943Z,111.55
2024-03-02T15:02:01.879Z,122.73
2024-03-02T15:04:44.412Z,132.70
2024-03-02T15:07:13.491Z,141.23
2024-03-02T15:09:42.673Z,143.45
2024-03-02T15:12:14.065Z,151.73
2024-03-02T15:15:01.802Z,151.83
2024-03-02T15:17:35.122Z,154.35
2024-03-02T15:20:05.842Z,164.75
2024-03-02T15:22:35.305Z,162.10
2024-03-02T15:25:04.955Z,161.88
2024-03-02T15:27:35.553Z,178.10
2024-03-02T15:30:11.985Z,168.73
2024-03-02T15:32:48.607Z,205.13
2024-03-02T15:35:20.893Z,188.80
2024-03-02T15:38:14.860Z,187.55
2024-03-02T15:41:13.737Z,208.33
2024-03-02T15:43:55.115Z,204.18
2024-03-02T15:46:37.540Z,204.95
2024-03-02T15:49:09.335Z,205.77
2024-03-02T15:51:45.620Z,195.75
2024-03-02T15:54:14.823Z,193.53
2024-03-02T15:56:46.483Z,185.40
2024-03-02T15:59:21.677Z,227.05
2024-03-02T16:02:09.893Z,199.68
2024-03-02T16:04:43.637Z,207.60
2024-03-02T16:07:26.006Z,223.40
2024-03-02T16:09:57.263Z,196.13
2024-03-02T16:12:34.454Z,210.63
2024-03-02T16:15:04.231Z,234.30
2024-03-02T16:17:39.048Z,206.80
2024-03-02T16:20:15.024Z,194.07
2024-03-02T16:22:50.072Z,186.95
2024-03-02T16:25:28.057Z,196.32
2024-03-02T16:28:07.332Z,188.05
2024-03-02T16:30:45.489Z,193.90
2024-03-02T16:33:15.813Z,203.43
2024-03-02T16:35:51.140Z,205.73
2024-03-02T16:38:33.265Z,213.23
2024-03-02T16:44:06.994Z,170.18
2024-03-02T16:46:46.598Z,199.03
2024-03-02T16:49:17.058Z,210.70
2024-03-02T16:51:48.744Z,180.07
2024-03-02T16:54:19.213Z,193.90
2024-03-02T16:57:00.370Z,207.70
2024-03-02T16:59:30.640Z,223.67
2024-03-02T17:02:00.182Z,205.18
2024-03-02T17:04:34.554Z,174.52
2024-03-02T17:07:20.134Z,175.95
2024-03-02T17:09:54.597Z,187.10
2024-03-02T17:12:30.674Z,207.93
2024-03-02T17:15:05.729Z,238.07
2024-03-02T17:20:27.665Z,242.82
2024-03-02T17:22:58.111Z,260.25
2024-03-02T17:25:36.474Z,260.23
2024-03-02T17:28:23.092Z,243.85
2024-03-02T17:30:52.412Z,228.93
2024-03-02T17:33:25.245Z,243.13
2024-03-02T17:36:05.610Z,243.65
2024-03-02T17:38:54.223Z,227.50
2024-03-02T17:41:34.868Z,186.95
2024-03-02T17:44:06.146Z,211.23
2024-03-02T17:46:45.308Z,215.77
2024-03-02T17:52:42.405Z,210.47
2024-03-02T17:55:29.133Z,215.02
2024-03-02T17:57:59.785Z,212.38
2024-03-02T18:00:33.206Z,216.13
2024-03-02T18:03:06.098Z,238.20
2024-03-02T18:08:38.588Z,266.55
2024-03-02T18:11:20.507Z,261.60
2024-03-02T18:14:25.119Z,275.33
2024-03-02T18:16:56.673Z,247.13
2024-03-02T18:19:36.562Z,268.80
2024-03-02T18:22:06.283Z,272.55
2024-03-02T18:24:40.662Z,290.38
2024-03-02T18:27:13.740Z,269.10
2024-03-02T18:30:11.709Z,250.70
2024-03-02T18:32:52.223Z,254.47
2024-03-02T18:35:46.873Z,279.90
2024-03-02T18:38:31.472Z,253.10
2024-03-02T18:41:02.864Z,236.13
2024-03-02T18:43:38.212Z,247.73
2024-03-02T18:46:11.364Z,228.20
2024-03-02T18:48:48.781Z,242.35
2024-03-02T18:51:25.776Z,242.88
2024-03-02T18:54:03.222Z,237.73
2024-03-02T18:56:36.489Z,231.15
2024-03-02T18:59:22.129Z,230.40
2024-03-02T19:01:55.218Z,228.35
2024-03-02T19:04:30.441Z,243.48
2024-03-02T19:07:00.437Z,198.63
2024-03-02T19:09:31.587Z,199.05
2024-03-02T19:12:07.356Z,207.43
2024-03-02T19:14:53.634Z,219.23
2024-03-02T19:17:26.115Z,220.50
2024-03-02T19:19:58.584Z,235.57
2024-03-02T19:22:33.006Z,243.02
2024-03-02T19:25:14.738Z,251.57
2024-03-02T19:27:45.956Z,252.98
2024-03-02T19:30:21.266Z,262.10
2024-03-02T19:32:58.812Z,281.25
2024-03-02T19:35:39.649Z,285.85
2024-03-02T19:38:27.734Z,255.70
2024-03-02T19:40:59.438Z,238.57
2024-03-02T19:43:45.353Z,233.07
2024-03-02T19:46:26.876Z,237.48
2024-03-02T19:49:44.723Z,255.88
2024-03-02T19:52:15.546Z,245.03
2024-03-02T19:54:46.127Z,259.70
2024-03-02T19:57:20.096Z,210.18
2024-03-02T19:59:52.206Z,199.88
2024-03-02T20:02:28.401Z,194.90
2024-03-02T20:05:03.327Z,181.67
2024-03-02T20:08:09.956Z,193.05
2024-03-02T20:10:39.777Z,221.35
2024-03-02T20:13:08.883Z,223.80
2024-03-02T20:15:39.263Z,252.23
2024-03-02T20:18:32.196Z,259.33
2024-03-02T20:21:07.347Z,268.75
2024-03-02T20:23:43.799Z,276.20
2024-03-02T20:26:15.146Z,264.88
2024-03-02T20:28:47.329Z,283.55
2024-03-02T20:31:16.762Z,285.23
2024-03-02T20:33:50.657Z,296.60
2024-03-02T20:36:20.191Z,309.65
2024-03-02T20:39:24.834Z,276.08
2024-03-02T20:41:54.951Z,298.15
2024-03-02T20:44:26.986Z,312.77
2024-03-02T20:51:48.389Z,338.30
2024-03-02T20:54:19.000Z,186.30
2024-03-02T20:56:47.985Z,235.10
2024-03-02T20:59:28.127Z,270.50
2024-03-02T21:02:05.456Z,263.40
2024-03-02T21:04:43.605Z,290.65
2024-03-02T21:09:38.848Z,176.15
2024-03-02T21:12:09.840Z,276.33
2024-03-02T21:14:41.772Z,314.67
2024-03-02T21:17:14.473Z,317.40
2024-03-02T21:19:46.694Z,317.90
2024-03-02T21:25:17.435Z,197.70
2024-03-02T21:27:53.401Z,71.35
2024-03-02T21:30:24.724Z,278.87
2024-03-02T21:32:55.547Z,247.13
2024-03-02T21:35:25.410Z,292.75
2024-03-02T21:37:57.771Z,290.77
2024-03-02T21:40:36.104Z,309.63
2024-03-02T21:43:06.996Z,310.00
2024-03-02T21:45:39.514Z,301.85
2024-03-02T21:48:10.031Z,263.92
2024-03-02T21:50:41.577Z,267.67
2024-03-02T21:53:10.544Z,236.30
2024-03-02T21:55:40.885Z,245.00
2024-03-02T21:58:10.373Z,17.40
2024-03-02T22:00:40.029Z,97.18
2024-03-02T22:03:09.099Z,111.38
2024-03-02T22:05:38.696Z,4.07
2024-03-02T22:08:08.735Z,162.37
2024-03-02T22:10:37.685Z,145.73
2024-03-02T22:13:08.273Z,158.57
2024-03-02T22:15:37.721Z,199.38
2024-03-02T22:18:09.726Z,144.05
2024-03-02T22:20:39.111Z,17.03
2024-03-02T22:23:08.160Z,10.90
2024-03-02T22:25:37.870Z,4.72
2024-03-02T22:28:09.324Z,5.10
2024-03-02T22:30:39.520Z,122.35
2024-03-02T22:33:08.694Z,63.47
2024-03-02T22:35:39.461Z,122.72
2024-03-02T22:38:08.755Z,54.83
2024-03-02T22:40:38.265Z,78.07
2024-03-02T22:43:13.988Z,88.18
2024-03-02T22:45:44.520Z,35.37
2024-03-02T22:48:33.753Z,40.47
2024-03-02T22:51:03.570Z,35.95
2024-03-02T22:53:38.058Z,18.88
2024-03-02T22:56:14.720Z,7.15
2024-03-02T22:59:03.585Z,62.90
2024-03-02T23:01:34.264Z,21.20
2024-03-02T23:04:05.482Z,19.20
2024-03-02T23:06:34.528Z,8.13
2024-03-02T23:09:04.979Z,9.48
2024-03-02T23:11:36.174Z,11.43
2024-03-02T23:17:15.675Z,6.07
2024-03-02T23:19:57.463Z,12.30
2024-03-02T23:22:26.955Z,14.18
2024-03-02T23:25:01.237Z,11.03
2024-03-02T23:27:30.212Z,12.00
2024-03-02T23:30:02.720Z,6.60
2024-03-02T23:32:37.334Z,5.45
2024-03-02T23:35:09.719Z,5.20
2024-03-02T23:37:39.735Z,16.53
2024-03-02T23:40:37.861Z,47.40
2024-03-02T23:43:21.581Z,82.45
2024-03-02T23:45:52.561Z,69.50
2024-03-02T23:48:22.904Z,6.65
2024-03-02T23:50:56.541Z,11.90
2024-03-02T23:53:30.289Z,10.32
2024-03-02T23:56:12.747Z,6.75
2024-03-02T23:58:42.365Z,6.40
